sensor_id;sensor_type;location;lat;lon;timestamp;P1;durP1;ratioP1;P2;durP2;ratioP2
22679;SDS011;11507;44.858;10.374;2023-08-08T00:02:08;1.95;;;0.50;;
22679;SDS011;11507;44.858;10.374;2023-08-08T00:04:34;3.13;;;0.60;;
22679;SDS011;11507;44.858;10.374;2023-08-08T00:07:00;2.78;;;0.60;;
22679;SDS011;11507;44.858;10.374;2023-08-08T00:09:25;2.72;;;0.70;;
22679;SDS011;11507;44.858;10.374;2023-08-08T00:11:51;1.88;;;0.50;;
22679;SDS011;11507;44.858;10.374;2023-08-08T00:14:18;3.63;;;0.60;;
22679;SDS011;11507;44.858;10.374;2023-08-08T00:16:43;6.05;;;0.80;;
22679;SDS011;11507;44.858;10.374;2023-08-08T00:19:09;3.03;;;0.63;;
22679;SDS011;11507;44.858;10.374;2023-08-08T00:21:35;2.15;;;0.70;;
22679;SDS011;11507;44.858;10.374;2023-08-08T00:24:01;2.40;;;0.65;;
22679;SDS011;11507;44.858;10.374;2023-08-08T00:26:26;4.40;;;0.70;;
22679;SDS011;11507;44.858;10.374;2023-08-08T00:28:53;3.95;;;0.65;;
22679;SDS011;11507;44.858;10.374;2023-08-08T00:31:18;1.60;;;0.55;;
22679;SDS011;11507;44.858;10.374;2023-08-08T00:33:45;2.28;;;0.80;;
22679;SDS011;11507;44.858;10.374;2023-08-08T00:36:10;1.73;;;0.47;;
22679;SDS011;11507;44.858;10.374;2023-08-08T00:38:36;1.60;;;0.57;;
22679;SDS011;11507;44.858;10.374;2023-08-08T00:41:02;1.42;;;0.60;;
22679;SDS011;11507;44.858;10.374;2023-08-08T00:43:29;1.38;;;0.47;;
22679;SDS011;11507;44.858;10.374;2023-08-08T00:45:55;1.02;;;0.50;;
22679;SDS011;11507;44.858;10.374;2023-08-08T00:48:22;4.00;;;0.60;;
22679;SDS011;11507;44.858;10.374;2023-08-08T00:50:48;3.47;;;0.60;;
22679;SDS011;11507;44.858;10.374;2023-08-08T00:53:16;2.63;;;0.65;;
22679;SDS011;11507;44.858;10.374;2023-08-08T00:55:44;1.85;;;0.68;;
22679;SDS011;11507;44.858;10.374;2023-08-08T00:58:11;4.05;;;0.63;;
22679;SDS011;11507;44.858;10.374;2023-08-08T01:00:38;1.50;;;0.60;;
22679;SDS011;11507;44.858;10.374;2023-08-08T01:03:03;3.22;;;0.70;;
22679;SDS011;11507;44.858;10.374;2023-08-08T01:05:31;1.92;;;0.60;;
22679;SDS011;11507;44.858;10.374;2023-08-08T01:08:06;1.98;;;0.60;;
22679;SDS011;11507;44.858;10.374;2023-08-08T01:10:41;1.95;;;0.47;;
22679;SDS011;11507;44.858;10.374;2023-08-08T01:13:12;1.00;;;0.35;;
22679;SDS011;11507;44.858;10.374;2023-08-08T01:15:41;2.00;;;0.50;;
22679;SDS011;11507;44.858;10.374;2023-08-08T01:18:08;2.95;;;0.70;;
22679;SDS011;11507;44.858;10.374;2023-08-08T01:20:36;2.10;;;0.68;;
22679;SDS011;11507;44.858;10.374;2023-08-08T01:25:29;1.80;;;0.50;;
22679;SDS011;11507;44.858;10.374;2023-08-08T01:27:55;2.13;;;0.50;;
22679;SDS011;11507;44.858;10.374;2023-08-08T01:30:22;2.30;;;0.60;;
22679;SDS011;11507;44.858;10.374;2023-08-08T01:32:47;2.85;;;0.60;;
22679;SDS011;11507;44.858;10.374;2023-08-08T01:35:14;2.25;;;0.50;;
22679;SDS011;11507;44.858;10.374;2023-08-08T01:37:48;4.93;;;0.40;;
22679;SDS011;11507;44.858;10.374;2023-08-08T01:40:17;1.52;;;0.60;;
22679;SDS011;11507;44.858;10.374;2023-08-08T01:42:44;1.88;;;0.55;;
22679;SDS011;11507;44.858;10.374;2023-08-08T01:45:11;1.27;;;0.50;;
22679;SDS011;11507;44.858;10.374;2023-08-08T01:47:38;0.93;;;0.40;;
22679;SDS011;11507;44.858;10.374;2023-08-08T01:50:04;2.33;;;0.70;;
22679;SDS011;11507;44.858;10.374;2023-08-08T01:52:30;2.40;;;0.60;;
22679;SDS011;11507;44.858;10.374;2023-08-08T01:54:56;1.83;;;0.60;;
22679;SDS011;11507;44.858;10.374;2023-08-08T01:57:22;2.53;;;0.57;;
22679;SDS011;11507;44.858;10.374;2023-08-08T01:59:48;1.58;;;0.77;;
22679;SDS011;11507;44.858;10.374;2023-08-08T02:02:15;1.30;;;0.47;;
22679;SDS011;11507;44.858;10.374;2023-08-08T02:04:42;1.55;;;0.65;;
22679;SDS011;11507;44.858;10.374;2023-08-08T02:07:08;2.83;;;0.70;;
22679;SDS011;11507;44.858;10.374;2023-08-08T02:09:34;1.92;;;0.70;;
22679;SDS011;11507;44.858;10.374;2023-08-08T02:11:59;2.25;;;0.80;;
22679;SDS011;11507;44.858;10.374;2023-08-08T02:14:25;1.52;;;0.60;;
22679;SDS011;11507;44.858;10.374;2023-08-08T02:16:52;2.05;;;0.65;;
22679;SDS011;11507;44.858;10.374;2023-08-08T02:19:18;1.83;;;0.60;;
22679;SDS011;11507;44.858;10.374;2023-08-08T02:21:44;2.25;;;0.63;;
22679;SDS011;11507;44.858;10.374;2023-08-08T02:24:09;2.08;;;0.70;;
22679;SDS011;11507;44.858;10.374;2023-08-08T02:26:35;2.63;;;0.70;;
22679;SDS011;11507;44.858;10.374;2023-08-08T02:29:05;2.53;;;0.60;;
22679;SDS011;11507;44.858;10.374;2023-08-08T02:31:31;1.73;;;0.55;;
22679;SDS011;11507;44.858;10.374;2023-08-08T02:33:56;2.42;;;0.60;;
22679;SDS011;11507;44.858;10.374;2023-08-08T02:36:22;2.92;;;0.75;;
22679;SDS011;11507;44.858;10.374;2023-08-08T02:38:48;3.75;;;0.70;;
22679;SDS011;11507;44.858;10.374;2023-08-08T02:41:18;3.35;;;0.60;;
22679;SDS011;11507;44.858;10.374;2023-08-08T02:43:45;3.00;;;0.80;;
22679;SDS011;11507;44.858;10.374;2023-08-08T02:46:11;3.10;;;0.60;;
22679;SDS011;11507;44.858;10.374;2023-08-08T02:48:37;1.85;;;0.60;;
22679;SDS011;11507;44.858;10.374;2023-08-08T02:51:02;2.95;;;0.70;;
22679;SDS011;11507;44.858;10.374;2023-08-08T02:53:28;1.38;;;0.50;;
22679;SDS011;11507;44.858;10.374;2023-08-08T02:55:54;1.67;;;0.70;;
22679;SDS011;11507;44.858;10.374;2023-08-08T02:58:20;1.20;;;0.50;;
22679;SDS011;11507;44.858;10.374;2023-08-08T03:00:46;2.17;;;0.70;;
22679;SDS011;11507;44.858;10.374;2023-08-08T03:03:14;1.70;;;0.60;;
22679;SDS011;11507;44.858;10.374;2023-08-08T03:05:43;3.15;;;0.60;;
22679;SDS011;11507;44.858;10.374;2023-08-08T03:08:09;3.67;;;0.63;;
22679;SDS011;11507;44.858;10.374;2023-08-08T03:10:36;2.20;;;0.70;;
22679;SDS011;11507;44.858;10.374;2023-08-08T03:13:03;1.73;;;0.60;;
22679;SDS011;11507;44.858;10.374;2023-08-08T03:17:54;2.95;;;0.60;;
22679;SDS011;11507;44.858;10.374;2023-08-08T03:20:21;1.83;;;0.70;;
22679;SDS011;11507;44.858;10.374;2023-08-08T03:22:48;2.63;;;0.60;;
22679;SDS011;11507;44.858;10.374;2023-08-08T03:27:39;3.47;;;0.90;;
22679;SDS011;11507;44.858;10.374;2023-08-08T03:30:08;4.53;;;1.15;;
22679;SDS011;11507;44.858;10.374;2023-08-08T03:32:39;3.70;;;1.23;;
22679;SDS011;11507;44.858;10.374;2023-08-08T03:35:06;4.05;;;1.23;;
22679;SDS011;11507;44.858;10.374;2023-08-08T03:37:33;2.45;;;1.10;;
22679;SDS011;11507;44.858;10.374;2023-08-08T03:42:24;5.03;;;1.50;;
22679;SDS011;11507;44.858;10.374;2023-08-08T03:47:16;5.82;;;1.25;;
22679;SDS011;11507;44.858;10.374;2023-08-08T03:52:08;5.18;;;1.48;;
22679;SDS011;11507;44.858;10.374;2023-08-08T03:54:34;6.60;;;1.52;;
22679;SDS011;11507;44.858;10.374;2023-08-08T03:57:00;5.30;;;1.40;;
22679;SDS011;11507;44.858;10.374;2023-08-08T03:59:26;4.15;;;1.10;;
22679;SDS011;11507;44.858;10.374;2023-08-08T04:04:18;3.83;;;1.00;;
22679;SDS011;11507;44.858;10.374;2023-08-08T04:06:44;5.38;;;1.40;;
22679;SDS011;11507;44.858;10.374;2023-08-08T04:11:36;3.20;;;1.40;;
22679;SDS011;11507;44.858;10.374;2023-08-08T04:14:02;8.23;;;1.65;;
22679;SDS011;11507;44.858;10.374;2023-08-08T04:16:28;4.10;;;1.05;;
22679;SDS011;11507;44.858;10.374;2023-08-08T04:21:19;2.53;;;1.02;;
22679;SDS011;11507;44.858;10.374;2023-08-08T04:26:11;2.97;;;1.10;;
22679;SDS011;11507;44.858;10.374;2023-08-08T04:28:36;9.60;;;1.60;;
22679;SDS011;11507;44.858;10.374;2023-08-08T04:31:02;9.75;;;1.25;;
22679;SDS011;11507;44.858;10.374;2023-08-08T04:33:28;10.45;;;1.65;;
22679;SDS011;11507;44.858;10.374;2023-08-08T04:35:54;7.07;;;1.67;;
22679;SDS011;11507;44.858;10.374;2023-08-08T04:38:19;11.88;;;1.85;;
22679;SDS011;11507;44.858;10.374;2023-08-08T04:43:11;4.60;;;1.13;;
22679;SDS011;11507;44.858;10.374;2023-08-08T04:48:02;8.27;;;1.58;;
22679;SDS011;11507;44.858;10.374;2023-08-08T04:52:54;6.38;;;1.50;;
22679;SDS011;11507;44.858;10.374;2023-08-08T04:55:19;11.63;;;2.22;;
22679;SDS011;11507;44.858;10.374;2023-08-08T05:00:11;7.22;;;1.83;;
22679;SDS011;11507;44.858;10.374;2023-08-08T05:02:38;4.18;;;1.58;;
22679;SDS011;11507;44.858;10.374;2023-08-08T05:05:06;3.65;;;1.20;;
22679;SDS011;11507;44.858;10.374;2023-08-08T05:07:32;5.10;;;1.77;;
22679;SDS011;11507;44.858;10.374;2023-08-08T05:10:01;3.83;;;1.40;;
22679;SDS011;11507;44.858;10.374;2023-08-08T05:12:28;4.57;;;1.30;;
22679;SDS011;11507;44.858;10.374;2023-08-08T05:17:19;4.55;;;1.40;;
22679;SDS011;11507;44.858;10.374;2023-08-08T05:19:45;4.28;;;1.23;;
22679;SDS011;11507;44.858;10.374;2023-08-08T05:24:37;3.00;;;1.23;;
22679;SDS011;11507;44.858;10.374;2023-08-08T05:27:03;3.30;;;1.30;;
22679;SDS011;11507;44.858;10.374;2023-08-08T05:29:29;3.92;;;1.52;;
22679;SDS011;11507;44.858;10.374;2023-08-08T05:31:56;5.03;;;1.88;;
22679;SDS011;11507;44.858;10.374;2023-08-08T05:36:49;3.75;;;1.60;;
22679;SDS011;11507;44.858;10.374;2023-08-08T05:41:40;4.45;;;1.63;;
22679;SDS011;11507;44.858;10.374;2023-08-08T05:44:06;3.75;;;1.38;;
22679;SDS011;11507;44.858;10.374;2023-08-08T05:46:32;4.13;;;1.30;;
22679;SDS011;11507;44.858;10.374;2023-08-08T05:49:01;4.72;;;1.42;;
22679;SDS011;11507;44.858;10.374;2023-08-08T05:51:27;3.35;;;1.20;;
22679;SDS011;11507;44.858;10.374;2023-08-08T05:53:52;2.92;;;1.25;;
22679;SDS011;11507;44.858;10.374;2023-08-08T05:56:18;4.72;;;1.17;;
22679;SDS011;11507;44.858;10.374;2023-08-08T05:58:44;2.58;;;1.20;;
22679;SDS011;11507;44.858;10.374;2023-08-08T06:01:10;5.55;;;1.30;;
22679;SDS011;11507;44.858;10.374;2023-08-08T06:03:36;4.95;;;1.10;;
22679;SDS011;11507;44.858;10.374;2023-08-08T06:06:03;4.45;;;1.30;;
22679;SDS011;11507;44.858;10.374;2023-08-08T06:08:29;5.80;;;1.30;;
22679;SDS011;11507;44.858;10.374;2023-08-08T06:10:55;3.45;;;1.45;;
22679;SDS011;11507;44.858;10.374;2023-08-08T06:13:20;3.38;;;1.30;;
22679;SDS011;11507;44.858;10.374;2023-08-08T06:15:46;2.97;;;1.23;;
22679;SDS011;11507;44.858;10.374;2023-08-08T06:18:12;5.00;;;1.90;;
22679;SDS011;11507;44.858;10.374;2023-08-08T06:20:38;8.30;;;1.40;;
22679;SDS011;11507;44.858;10.374;2023-08-08T06:23:03;4.05;;;1.80;;
22679;SDS011;11507;44.858;10.374;2023-08-08T06:25:29;7.32;;;2.10;;
22679;SDS011;11507;44.858;10.374;2023-08-08T06:27:55;6.00;;;1.95;;
22679;SDS011;11507;44.858;10.374;2023-08-08T06:30:20;3.67;;;1.65;;
22679;SDS011;11507;44.858;10.374;2023-08-08T06:32:46;4.13;;;1.83;;
22679;SDS011;11507;44.858;10.374;2023-08-08T06:35:12;2.72;;;1.30;;
22679;SDS011;11507;44.858;10.374;2023-08-08T06:37:38;3.35;;;1.50;;
22679;SDS011;11507;44.858;10.374;2023-08-08T06:40:05;7.40;;;1.70;;
22679;SDS011;11507;44.858;10.374;2023-08-08T06:42:32;5.32;;;1.92;;
22679;SDS011;11507;44.858;10.374;2023-08-08T06:45:00;5.63;;;1.88;;
22679;SDS011;11507;44.858;10.374;2023-08-08T06:47:25;2.53;;;1.17;;
22679;SDS011;11507;44.858;10.374;2023-08-08T06:49:51;5.40;;;1.20;;
22679;SDS011;11507;44.858;10.374;2023-08-08T06:52:17;4.15;;;1.38;;
22679;SDS011;11507;44.858;10.374;2023-08-08T06:54:43;3.40;;;1.17;;
22679;SDS011;11507;44.858;10.374;2023-08-08T06:57:08;2.78;;;1.05;;
22679;SDS011;11507;44.858;10.374;2023-08-08T06:59:34;5.10;;;1.20;;
22679;SDS011;11507;44.858;10.374;2023-08-08T07:02:00;4.05;;;1.10;;
22679;SDS011;11507;44.858;10.374;2023-08-08T07:04:26;4.32;;;1.13;;
22679;SDS011;11507;44.858;10.374;2023-08-08T07:06:52;7.07;;;1.40;;
22679;SDS011;11507;44.858;10.374;2023-08-08T07:09:18;4.13;;;1.58;;
22679;SDS011;11507;44.858;10.374;2023-08-08T07:11:43;4.78;;;2.00;;
22679;SDS011;11507;44.858;10.374;2023-08-08T07:14:09;5.60;;;2.20;;
22679;SDS011;11507;44.858;10.374;2023-08-08T07:16:35;4.80;;;1.98;;
22679;SDS011;11507;44.858;10.374;2023-08-08T07:19:01;5.68;;;1.85;;
22679;SDS011;11507;44.858;10.374;2023-08-08T07:21:27;4.00;;;1.80;;
22679;SDS011;11507;44.858;10.374;2023-08-08T07:23:54;4.32;;;1.95;;
22679;SDS011;11507;44.858;10.374;2023-08-08T07:26:20;4.80;;;2.30;;
22679;SDS011;11507;44.858;10.374;2023-08-08T07:28:47;5.50;;;2.22;;
22679;SDS011;11507;44.858;10.374;2023-08-08T07:31:13;5.10;;;2.17;;
22679;SDS011;11507;44.858;10.374;2023-08-08T07:33:38;6.35;;;2.10;;
22679;SDS011;11507;44.858;10.374;2023-08-08T07:36:04;6.40;;;2.80;;
22679;SDS011;11507;44.858;10.374;2023-08-08T07:38:30;7.35;;;2.83;;
22679;SDS011;11507;44.858;10.374;2023-08-08T07:40:55;4.85;;;2.90;;
22679;SDS011;11507;44.858;10.374;2023-08-08T07:43:21;7.40;;;2.90;;
22679;SDS011;11507;44.858;10.374;2023-08-08T07:45:47;3.80;;;2.33;;
22679;SDS011;11507;44.858;10.374;2023-08-08T07:48:13;8.32;;;2.55;;
22679;SDS011;11507;44.858;10.374;2023-08-08T07:50:38;7.15;;;2.85;;
22679;SDS011;11507;44.858;10.374;2023-08-08T07:53:04;6.63;;;2.80;;
22679;SDS011;11507;44.858;10.374;2023-08-08T07:55:30;6.88;;;2.95;;
22679;SDS011;11507;44.858;10.374;2023-08-08T07:57:56;7.70;;;3.40;;
22679;SDS011;11507;44.858;10.374;2023-08-08T08:00:21;4.45;;;2.92;;
22679;SDS011;11507;44.858;10.374;2023-08-08T08:02:47;5.72;;;3.08;;
22679;SDS011;11507;44.858;10.374;2023-08-08T08:05:13;7.20;;;3.15;;
22679;SDS011;11507;44.858;10.374;2023-08-08T08:07:39;7.40;;;3.05;;
22679;SDS011;11507;44.858;10.374;2023-08-08T08:10:06;7.95;;;3.58;;
22679;SDS011;11507;44.858;10.374;2023-08-08T08:12:34;9.65;;;3.50;;
22679;SDS011;11507;44.858;10.374;2023-08-08T08:15:00;8.02;;;3.60;;
22679;SDS011;11507;44.858;10.374;2023-08-08T08:17:26;8.73;;;3.95;;
22679;SDS011;11507;44.858;10.374;2023-08-08T08:19:53;8.63;;;4.35;;
22679;SDS011;11507;44.858;10.374;2023-08-08T08:22:19;7.05;;;3.40;;
22679;SDS011;11507;44.858;10.374;2023-08-08T08:24:45;7.68;;;4.25;;
22679;SDS011;11507;44.858;10.374;2023-08-08T08:27:11;6.93;;;4.60;;
22679;SDS011;11507;44.858;10.374;2023-08-08T08:29:39;8.60;;;4.68;;
22679;SDS011;11507;44.858;10.374;2023-08-08T08:32:05;10.20;;;4.72;;
22679;SDS011;11507;44.858;10.374;2023-08-08T08:34:30;9.07;;;4.65;;
22679;SDS011;11507;44.858;10.374;2023-08-08T08:36:56;8.43;;;4.70;;
22679;SDS011;11507;44.858;10.374;2023-08-08T08:39:22;10.57;;;4.68;;
22679;SDS011;11507;44.858;10.374;2023-08-08T08:41:49;12.55;;;5.63;;
22679;SDS011;11507;44.858;10.374;2023-08-08T08:44:19;11.63;;;5.35;;
22679;SDS011;11507;44.858;10.374;2023-08-08T08:46:47;11.68;;;5.82;;
22679;SDS011;11507;44.858;10.374;2023-08-08T08:49:14;8.60;;;5.20;;
22679;SDS011;11507;44.858;10.374;2023-08-08T08:51:44;12.57;;;6.05;;
22679;SDS011;11507;44.858;10.374;2023-08-08T08:54:10;10.32;;;6.28;;
22679;SDS011;11507;44.858;10.374;2023-08-08T08:56:36;10.63;;;6.00;;
22679;SDS011;11507;44.858;10.374;2023-08-08T08:59:02;11.43;;;5.85;;
22679;SDS011;11507;44.858;10.374;2023-08-08T09:01:29;13.75;;;6.65;;
22679;SDS011;11507;44.858;10.374;2023-08-08T09:03:55;11.68;;;6.65;;
22679;SDS011;11507;44.858;10.374;2023-08-08T09:06:22;12.20;;;6.40;;
22679;SDS011;11507;44.858;10.374;2023-08-08T09:08:48;9.32;;;6.00;;
22679;SDS011;11507;44.858;10.374;2023-08-08T09:11:14;11.93;;;6.25;;
22679;SDS011;11507;44.858;10.374;2023-08-08T09:13:40;13.25;;;7.20;;
22679;SDS011;11507;44.858;10.374;2023-08-08T09:16:06;11.88;;;6.75;;
22679;SDS011;11507;44.858;10.374;2023-08-08T09:18:33;11.63;;;6.82;;
22679;SDS011;11507;44.858;10.374;2023-08-08T09:21:08;12.45;;;7.38;;
22679;SDS011;11507;44.858;10.374;2023-08-08T09:23:36;13.48;;;6.88;;
22679;SDS011;11507;44.858;10.374;2023-08-08T09:26:03;13.18;;;7.32;;
22679;SDS011;11507;44.858;10.374;2023-08-08T09:28:29;16.15;;;6.82;;
22679;SDS011;11507;44.858;10.374;2023-08-08T09:30:55;12.60;;;7.45;;
22679;SDS011;11507;44.858;10.374;2023-08-08T09:33:21;14.57;;;7.40;;
22679;SDS011;11507;44.858;10.374;2023-08-08T09:35:47;10.55;;;5.95;;
22679;SDS011;11507;44.858;10.374;2023-08-08T09:38:12;9.32;;;6.05;;
22679;SDS011;11507;44.858;10.374;2023-08-08T09:40:38;10.02;;;5.18;;
22679;SDS011;11507;44.858;10.374;2023-08-08T09:43:06;10.45;;;5.75;;
22679;SDS011;11507;44.858;10.374;2023-08-08T09:45:38;11.95;;;6.38;;
22679;SDS011;11507;44.858;10.374;2023-08-08T09:48:07;13.82;;;6.95;;
22679;SDS011;11507;44.858;10.374;2023-08-08T09:50:33;10.63;;;6.38;;
22679;SDS011;11507;44.858;10.374;2023-08-08T09:53:00;13.68;;;6.70;;
22679;SDS011;11507;44.858;10.374;2023-08-08T09:55:28;14.00;;;6.32;;
22679;SDS011;11507;44.858;10.374;2023-08-08T09:57:55;11.88;;;6.05;;
22679;SDS011;11507;44.858;10.374;2023-08-08T10:00:23;11.45;;;6.03;;
22679;SDS011;11507;44.858;10.374;2023-08-08T10:02:52;10.55;;;6.15;;
22679;SDS011;11507;44.858;10.374;2023-08-08T10:05:19;10.73;;;6.05;;
22679;SDS011;11507;44.858;10.374;2023-08-08T10:07:45;12.77;;;6.65;;
22679;SDS011;11507;44.858;10.374;2023-08-08T10:10:10;11.48;;;6.47;;
22679;SDS011;11507;44.858;10.374;2023-08-08T10:12:37;10.45;;;6.25;;
22679;SDS011;11507;44.858;10.374;2023-08-08T10:15:07;10.63;;;5.65;;
22679;SDS011;11507;44.858;10.374;2023-08-08T10:17:38;11.93;;;6.13;;
22679;SDS011;11507;44.858;10.374;2023-08-08T10:20:05;11.77;;;6.30;;
22679;SDS011;11507;44.858;10.374;2023-08-08T10:22:38;11.20;;;6.45;;
22679;SDS011;11507;44.858;10.374;2023-08-08T10:25:08;13.27;;;6.45;;
22679;SDS011;11507;44.858;10.374;2023-08-08T10:27:35;12.05;;;5.85;;
22679;SDS011;11507;44.858;10.374;2023-08-08T10:30:06;14.88;;;6.20;;
22679;SDS011;11507;44.858;10.374;2023-08-08T10:32:45;9.93;;;6.03;;
22679;SDS011;11507;44.858;10.374;2023-08-08T10:35:15;9.45;;;5.90;;
22679;SDS011;11507;44.858;10.374;2023-08-08T10:37:51;13.43;;;7.20;;
22679;SDS011;11507;44.858;10.374;2023-08-08T10:40:18;11.88;;;6.80;;
22679;SDS011;11507;44.858;10.374;2023-08-08T10:42:45;12.45;;;6.47;;
22679;SDS011;11507;44.858;10.374;2023-08-08T10:45:13;11.25;;;6.13;;
22679;SDS011;11507;44.858;10.374;2023-08-08T10:47:40;10.88;;;6.63;;
22679;SDS011;11507;44.858;10.374;2023-08-08T10:55:27;11.07;;;6.72;;
22679;SDS011;11507;44.858;10.374;2023-08-08T11:00:30;9.52;;;5.57;;
22679;SDS011;11507;44.858;10.374;2023-08-08T11:02:57;9.30;;;5.05;;
22679;SDS011;11507;44.858;10.374;2023-08-08T11:05:25;12.25;;;6.32;;
22679;SDS011;11507;44.858;10.374;2023-08-08T11:07:53;11.27;;;6.10;;
22679;SDS011;11507;44.858;10.374;2023-08-08T11:10:20;11.20;;;6.28;;
22679;SDS011;11507;44.858;10.374;2023-08-08T11:13:00;11.95;;;5.78;;
22679;SDS011;11507;44.858;10.374;2023-08-08T11:15:29;8.45;;;5.25;;
22679;SDS011;11507;44.858;10.374;2023-08-08T11:17:55;9.48;;;5.03;;
22679;SDS011;11507;44.858;10.374;2023-08-08T11:20:22;13.25;;;5.10;;
22679;SDS011;11507;44.858;10.374;2023-08-08T11:22:55;8.93;;;4.60;;
22679;SDS011;11507;44.858;10.374;2023-08-08T11:25:22;11.00;;;4.40;;
22679;SDS011;11507;44.858;10.374;2023-08-08T11:27:51;9.30;;;4.88;;
22679;SDS011;11507;44.858;10.374;2023-08-08T11:30:17;8.32;;;4.43;;
22679;SDS011;11507;44.858;10.374;2023-08-08T11:32:45;9.75;;;4.75;;
22679;SDS011;11507;44.858;10.374;2023-08-08T11:35:12;10.20;;;4.20;;
22679;SDS011;11507;44.858;10.374;2023-08-08T11:37:49;8.70;;;4.75;;
22679;SDS011;11507;44.858;10.374;2023-08-08T11:40:17;8.43;;;5.22;;
22679;SDS011;11507;44.858;10.374;2023-08-08T11:42:45;9.52;;;4.93;;
22679;SDS011;11507;44.858;10.374;2023-08-08T11:45:12;7.90;;;4.47;;
22679;SDS011;11507;44.858;10.374;2023-08-08T11:47:40;10.30;;;4.03;;
22679;SDS011;11507;44.858;10.374;2023-08-08T11:50:07;7.25;;;3.90;;
22679;SDS011;11507;44.858;10.374;2023-08-08T11:52:35;8.73;;;4.10;;
22679;SDS011;11507;44.858;10.374;2023-08-08T11:55:05;7.45;;;3.97;;
22679;SDS011;11507;44.858;10.374;2023-08-08T11:57:33;6.60;;;3.95;;
22679;SDS011;11507;44.858;10.374;2023-08-08T12:00:00;9.52;;;3.92;;
22679;SDS011;11507;44.858;10.374;2023-08-08T12:02:38;5.55;;;3.42;;
22679;SDS011;11507;44.858;10.374;2023-08-08T12:05:06;7.97;;;2.97;;
22679;SDS011;11507;44.858;10.374;2023-08-08T12:07:32;6.35;;;3.25;;
22679;SDS011;11507;44.858;10.374;2023-08-08T12:10:03;5.75;;;3.60;;
22679;SDS011;11507;44.858;10.374;2023-08-08T12:12:31;8.65;;;3.53;;
22679;SDS011;11507;44.858;10.374;2023-08-08T12:15:06;5.20;;;3.08;;
22679;SDS011;11507;44.858;10.374;2023-08-08T12:17:34;7.82;;;3.78;;
22679;SDS011;11507;44.858;10.374;2023-08-08T12:20:03;5.15;;;3.10;;
22679;SDS011;11507;44.858;10.374;2023-08-08T12:22:30;7.18;;;3.58;;
22679;SDS011;11507;44.858;10.374;2023-08-08T12:24:56;6.00;;;2.40;;
22679;SDS011;11507;44.858;10.374;2023-08-08T12:27:22;4.57;;;2.70;;
22679;SDS011;11507;44.858;10.374;2023-08-08T12:29:48;4.53;;;2.70;;
22679;SDS011;11507;44.858;10.374;2023-08-08T12:32:14;5.65;;;2.30;;
22679;SDS011;11507;44.858;10.374;2023-08-08T12:34:39;5.20;;;2.80;;
22679;SDS011;11507;44.858;10.374;2023-08-08T12:37:05;6.03;;;3.00;;
22679;SDS011;11507;44.858;10.374;2023-08-08T12:39:31;4.95;;;2.88;;
22679;SDS011;11507;44.858;10.374;2023-08-08T12:41:57;9.18;;;3.20;;
22679;SDS011;11507;44.858;10.374;2023-08-08T12:44:22;6.20;;;2.55;;
22679;SDS011;11507;44.858;10.374;2023-08-08T12:46:48;4.85;;;2.45;;
22679;SDS011;11507;44.858;10.374;2023-08-08T12:49:14;4.47;;;2.30;;
22679;SDS011;11507;44.858;10.374;2023-08-08T12:51:40;5.63;;;2.13;;
22679;SDS011;11507;44.858;10.374;2023-08-08T12:54:06;5.10;;;2.30;;
22679;SDS011;11507;44.858;10.374;2023-08-08T12:56:32;4.00;;;2.13;;
22679;SDS011;11507;44.858;10.374;2023-08-08T12:58:58;4.55;;;1.90;;
22679;SDS011;11507;44.858;10.374;2023-08-08T13:01:23;4.43;;;2.35;;
22679;SDS011;11507;44.858;10.374;2023-08-08T13:03:50;5.55;;;2.17;;
22679;SDS011;11507;44.858;10.374;2023-08-08T13:06:16;3.97;;;2.20;;
22679;SDS011;11507;44.858;10.374;2023-08-08T13:08:42;4.72;;;2.53;;
22679;SDS011;11507;44.858;10.374;2023-08-08T13:11:08;5.50;;;2.17;;
22679;SDS011;11507;44.858;10.374;2023-08-08T13:13:33;4.65;;;2.60;;
22679;SDS011;11507;44.858;10.374;2023-08-08T13:15:59;5.80;;;2.50;;
22679;SDS011;11507;44.858;10.374;2023-08-08T13:18:25;5.68;;;2.45;;
22679;SDS011;11507;44.858;10.374;2023-08-08T13:20:52;4.00;;;2.40;;
22679;SDS011;11507;44.858;10.374;2023-08-08T13:23:18;5.22;;;2.30;;
22679;SDS011;11507;44.858;10.374;2023-08-08T13:25:44;9.68;;;2.35;;
22679;SDS011;11507;44.858;10.374;2023-08-08T13:28:09;3.92;;;2.10;;
22679;SDS011;11507;44.858;10.374;2023-08-08T13:30:35;7.20;;;2.47;;
22679;SDS011;11507;44.858;10.374;2023-08-08T13:33:01;4.43;;;2.50;;
22679;SDS011;11507;44.858;10.374;2023-08-08T13:35:28;5.22;;;2.47;;
22679;SDS011;11507;44.858;10.374;2023-08-08T13:37:55;4.55;;;2.30;;
22679;SDS011;11507;44.858;10.374;2023-08-08T13:40:21;6.43;;;2.22;;
22679;SDS011;11507;44.858;10.374;2023-08-08T13:42:47;4.22;;;1.70;;
22679;SDS011;11507;44.858;10.374;2023-08-08T13:45:13;4.15;;;1.98;;
22679;SDS011;11507;44.858;10.374;2023-08-08T13:47:39;4.80;;;1.77;;
22679;SDS011;11507;44.858;10.374;2023-08-08T13:50:05;3.03;;;1.67;;
22679;SDS011;11507;44.858;10.374;2023-08-08T13:52:33;5.18;;;1.73;;
22679;SDS011;11507;44.858;10.374;2023-08-08T13:54:59;4.07;;;1.77;;
22679;SDS011;11507;44.858;10.374;2023-08-08T13:57:25;3.65;;;1.67;;
22679;SDS011;11507;44.858;10.374;2023-08-08T13:59:51;3.38;;;1.65;;
22679;SDS011;11507;44.858;10.374;2023-08-08T14:02:17;3.83;;;1.20;;
22679;SDS011;11507;44.858;10.374;2023-08-08T14:04:44;4.13;;;1.67;;
22679;SDS011;11507;44.858;10.374;2023-08-08T14:07:10;2.72;;;1.40;;
22679;SDS011;11507;44.858;10.374;2023-08-08T14:09:36;3.80;;;1.40;;
22679;SDS011;11507;44.858;10.374;2023-08-08T14:12:02;2.72;;;1.30;;
22679;SDS011;11507;44.858;10.374;2023-08-08T14:14:28;3.80;;;1.38;;
22679;SDS011;11507;44.858;10.374;2023-08-08T14:16:54;3.00;;;1.50;;
22679;SDS011;11507;44.858;10.374;2023-08-08T14:19:19;3.65;;;1.42;;
22679;SDS011;11507;44.858;10.374;2023-08-08T14:21:45;3.67;;;1.50;;
22679;SDS011;11507;44.858;10.374;2023-08-08T14:24:11;4.90;;;1.40;;
22679;SDS011;11507;44.858;10.374;2023-08-08T14:26:37;3.17;;;1.40;;
22679;SDS011;11507;44.858;10.374;2023-08-08T14:29:03;3.40;;;1.40;;
22679;SDS011;11507;44.858;10.374;2023-08-08T14:31:30;3.05;;;1.13;;
22679;SDS011;11507;44.858;10.374;2023-08-08T14:33:56;2.20;;;1.00;;
22679;SDS011;11507;44.858;10.374;2023-08-08T14:36:22;3.78;;;1.20;;
22679;SDS011;11507;44.858;10.374;2023-08-08T14:38:47;3.17;;;1.10;;
22679;SDS011;11507;44.858;10.374;2023-08-08T14:41:13;3.45;;;1.50;;
22679;SDS011;11507;44.858;10.374;2023-08-08T14:43:39;2.65;;;1.48;;
22679;SDS011;11507;44.858;10.374;2023-08-08T14:46:05;4.18;;;1.25;;
22679;SDS011;11507;44.858;10.374;2023-08-08T14:48:31;5.03;;;1.10;;
22679;SDS011;11507;44.858;10.374;2023-08-08T14:50:56;3.00;;;1.38;;
22679;SDS011;11507;44.858;10.374;2023-08-08T14:53:24;4.18;;;1.27;;
22679;SDS011;11507;44.858;10.374;2023-08-08T14:55:52;2.40;;;1.30;;
22679;SDS011;11507;44.858;10.374;2023-08-08T14:58:17;4.80;;;1.70;;
22679;SDS011;11507;44.858;10.374;2023-08-08T15:00:43;2.80;;;1.40;;
22679;SDS011;11507;44.858;10.374;2023-08-08T15:03:09;3.60;;;1.45;;
22679;SDS011;11507;44.858;10.374;2023-08-08T15:05:35;2.60;;;1.38;;
22679;SDS011;11507;44.858;10.374;2023-08-08T15:08:01;3.50;;;1.25;;
22679;SDS011;11507;44.858;10.374;2023-08-08T15:10:28;3.55;;;1.45;;
22679;SDS011;11507;44.858;10.374;2023-08-08T15:12:53;4.05;;;1.58;;
22679;SDS011;11507;44.858;10.374;2023-08-08T15:15:20;3.75;;;1.40;;
22679;SDS011;11507;44.858;10.374;2023-08-08T15:17:48;2.85;;;1.30;;
22679;SDS011;11507;44.858;10.374;2023-08-08T15:20:14;3.30;;;1.30;;
22679;SDS011;11507;44.858;10.374;2023-08-08T15:22:39;4.93;;;1.10;;